createdAt,value
2022-12-22T00:00:31.429Z,11.02
2022-12-22T00:06:17.655Z,14.57
2022-12-22T00:09:10.087Z,11.48
2022-12-22T00:12:01.195Z,9.50
2022-12-22T00:14:52.788Z,10.30
2022-12-22T00:17:44.942Z,11.43
2022-12-22T00:20:38.214Z,16.70
2022-12-22T00:23:29.527Z,9.77
2022-12-22T00:26:23.200Z,15.23
2022-12-22T00:29:13.888Z,14.73
2022-12-22T00:32:08.211Z,14.45
2022-12-22T00:35:01.612Z,16.17
2022-12-22T00:37:55.613Z,21.75
2022-12-22T00:40:47.646Z,9.15
2022-12-22T00:43:39.823Z,9.27
2022-12-22T00:46:33.762Z,14.63
2022-12-22T00:49:24.383Z,11.05
2022-12-22T00:52:15.098Z,11.35
2022-12-22T00:55:05.563Z,10.30
2022-12-22T00:57:56.634Z,16.45
2022-12-22T01:00:48.668Z,12.43
2022-12-22T01:03:39.295Z,10.95
2022-12-22T01:06:30.156Z,16.83
2022-12-22T01:09:20.813Z,11.45
2022-12-22T01:12:11.629Z,8.07
2022-12-22T01:15:02.226Z,8.90
2022-12-22T01:17:54.215Z,10.57
2022-12-22T01:20:45.161Z,12.88
2022-12-22T01:23:36.134Z,8.95
2022-12-22T01:26:29.658Z,13.65
2022-12-22T01:29:20.235Z,13.83
2022-12-22T01:32:11.744Z,10.23
2022-12-22T01:35:03.956Z,9.63
2022-12-22T01:37:54.669Z,9.02
2022-12-22T01:40:45.864Z,11.95
2022-12-22T01:43:39.380Z,13.85
2022-12-22T01:46:38.193Z,9.30
2022-12-22T01:49:33.061Z,10.68
2022-12-22T01:52:26.764Z,10.88
2022-12-22T01:55:22.437Z,7.78
2022-12-22T01:58:13.527Z,9.05
2022-12-22T02:01:05.641Z,9.15
2022-12-22T02:03:56.265Z,9.57
2022-12-22T02:06:56.268Z,12.43
2022-12-22T02:09:59.206Z,11.05
2022-12-22T02:12:57.163Z,9.30
2022-12-22T02:15:55.184Z,10.90
2022-12-22T02:18:56.088Z,11.25
2022-12-22T02:21:53.621Z,8.30
2022-12-22T02:24:55.074Z,7.57
2022-12-22T02:27:47.478Z,8.77
2022-12-22T02:30:38.236Z,10.25
2022-12-22T02:33:29.072Z,8.60
2022-12-22T02:36:28.493Z,11.25
2022-12-22T02:39:26.298Z,9.13
2022-12-22T02:42:30.945Z,11.95
2022-12-22T02:48:23.448Z,8.93
2022-12-22T02:51:20.442Z,11.82
2022-12-22T02:54:13.032Z,10.48
2022-12-22T02:57:05.171Z,7.28
2022-12-22T02:59:55.794Z,8.55
2022-12-22T03:02:48.255Z,10.52
2022-12-22T03:05:39.373Z,8.55
2022-12-22T03:08:29.985Z,7.40
2022-12-22T03:11:20.810Z,8.45
2022-12-22T03:14:11.322Z,6.55
2022-12-22T03:17:01.882Z,8.05
2022-12-22T03:19:53.757Z,10.48
2022-12-22T03:22:44.316Z,7.10
2022-12-22T03:25:35.320Z,8.77
2022-12-22T03:28:11.433Z,6.82
2022-12-22T03:30:45.011Z,6.40
2022-12-22T03:33:18.406Z,8.65
2022-12-22T03:35:53.162Z,7.47
2022-12-22T03:38:26.745Z,10.23
2022-12-22T03:41:00.401Z,8.30
2022-12-22T03:43:51.288Z,10.27
2022-12-22T03:46:33.428Z,7.30
2022-12-22T03:49:12.993Z,11.00
2022-12-22T03:51:49.351Z,6.45
2022-12-22T03:54:24.911Z,7.22
2022-12-22T03:56:58.289Z,10.60
2022-12-22T03:59:31.588Z,6.97
2022-12-22T04:02:05.120Z,9.10
2022-12-22T04:04:38.486Z,8.63
2022-12-22T04:07:13.206Z,6.82
2022-12-22T04:10:00.400Z,11.50
2022-12-22T04:12:51.099Z,7.63
2022-12-22T04:15:25.755Z,12.27
2022-12-22T04:17:59.946Z,8.80
2022-12-22T04:20:33.231Z,9.30
2022-12-22T04:23:07.927Z,5.28
2022-12-22T04:25:41.219Z,5.90
2022-12-22T04:28:14.524Z,8.30
2022-12-22T04:30:50.491Z,6.65
2022-12-22T04:33:23.839Z,8.75
2022-12-22T04:35:58.708Z,6.43
2022-12-22T04:38:33.477Z,8.70
2022-12-22T04:41:07.862Z,7.03
2022-12-22T04:43:41.247Z,11.35
2022-12-22T04:46:14.726Z,5.88
2022-12-22T04:48:48.120Z,4.72
2022-12-22T04:51:21.440Z,8.88
2022-12-22T04:53:56.133Z,7.35
2022-12-22T04:56:29.436Z,8.63
2022-12-22T04:59:02.712Z,7.80
2022-12-22T05:01:36.221Z,11.32
2022-12-22T05:06:42.887Z,4.88
2022-12-22T05:09:17.571Z,6.65
2022-12-22T05:11:50.954Z,7.57
2022-12-22T05:14:24.363Z,19.58
2022-12-22T05:16:57.726Z,19.70
2022-12-22T05:19:31.187Z,17.00
2022-12-22T05:22:04.462Z,17.52
2022-12-22T05:24:39.140Z,15.93
2022-12-22T05:27:12.540Z,15.18
2022-12-22T05:29:45.890Z,14.43
2022-12-22T05:32:19.332Z,12.55
2022-12-22T05:34:52.660Z,11.85
2022-12-22T05:37:26.070Z,13.45
2022-12-22T05:40:00.847Z,9.50
2022-12-22T05:42:39.816Z,11.10
2022-12-22T05:45:16.090Z,13.55
2022-12-22T05:47:51.074Z,11.00
2022-12-22T05:50:26.057Z,16.95
2022-12-22T05:53:10.483Z,10.05
2022-12-22T05:55:45.191Z,6.85
2022-12-22T05:58:21.781Z,10.15
2022-12-22T06:00:58.902Z,11.60
2022-12-22T06:03:32.759Z,7.18
2022-12-22T06:06:06.629Z,7.78
2022-12-22T06:11:18.134Z,7.65
2022-12-22T06:13:51.450Z,11.63
2022-12-22T06:16:25.180Z,8.55
2022-12-22T06:21:31.699Z,11.02
2022-12-22T06:24:06.037Z,13.05
2022-12-22T06:26:40.734Z,9.57
2022-12-22T06:29:14.084Z,8.13
2022-12-22T06:31:48.248Z,8.35
2022-12-22T06:34:22.173Z,7.88
2022-12-22T06:36:55.487Z,8.65
2022-12-22T06:39:28.831Z,8.77
2022-12-22T06:42:21.140Z,7.82
2022-12-22T06:44:55.532Z,15.85
2022-12-22T06:47:28.931Z,13.52
2022-12-22T06:50:02.260Z,10.13
2022-12-22T06:52:35.589Z,13.38
2022-12-22T06:55:09.609Z,15.65
2022-12-22T06:57:44.307Z,13.43
2022-12-22T07:00:18.264Z,14.57
2022-12-22T07:02:51.751Z,10.13
2022-12-22T07:05:25.472Z,10.45
2022-12-22T07:08:05.721Z,14.25
2022-12-22T07:10:59.727Z,13.15
2022-12-22T07:13:36.156Z,13.00
2022-12-22T07:16:11.918Z,14.45
2022-12-22T07:18:45.284Z,13.55
2022-12-22T07:21:18.639Z,13.32
2022-12-22T07:23:51.937Z,17.33
2022-12-22T07:26:25.323Z,13.95
2022-12-22T07:29:00.068Z,11.05
2022-12-22T07:31:33.541Z,16.63
2022-12-22T07:34:06.978Z,10.20
2022-12-22T07:36:40.375Z,14.05
2022-12-22T07:39:14.344Z,14.13
2022-12-22T07:42:04.835Z,9.10
2022-12-22T07:44:39.685Z,17.33
2022-12-22T07:47:13.030Z,11.90
2022-12-22T07:50:03.643Z,18.40
2022-12-22T07:52:36.926Z,25.30
2022-12-22T07:55:10.947Z,25.60
2022-12-22T07:57:44.283Z,19.00
2022-12-22T08:00:19.929Z,17.73
2022-12-22T08:02:55.250Z,26.98
2022-12-22T08:05:28.705Z,24.30
2022-12-22T08:08:02.060Z,26.90
2022-12-22T08:10:35.374Z,29.75
2022-12-22T08:13:08.730Z,25.08
2022-12-22T08:15:43.508Z,22.98
2022-12-22T08:18:16.799Z,26.10
2022-12-22T08:20:51.612Z,23.15
2022-12-22T08:23:25.079Z,22.80
2022-12-22T08:26:07.895Z,22.65
2022-12-22T08:28:45.731Z,21.55
2022-12-22T08:31:20.976Z,21.40
2022-12-22T08:33:55.866Z,18.63
2022-12-22T08:36:31.594Z,19.15
2022-12-22T08:39:05.824Z,17.52
2022-12-22T08:41:51.587Z,15.50
2022-12-22T08:44:26.637Z,17.45
2022-12-22T08:47:01.593Z,18.45
2022-12-22T08:49:35.079Z,19.23
2022-12-22T08:52:12.861Z,23.50
2022-12-22T08:54:51.034Z,21.75
2022-12-22T08:57:24.357Z,17.73
2022-12-22T08:59:57.808Z,18.90
2022-12-22T09:02:33.493Z,26.63
2022-12-22T09:05:07.365Z,17.73
2022-12-22T09:10:15.299Z,18.13
2022-12-22T09:12:48.991Z,23.35
2022-12-22T09:15:22.357Z,24.85
2022-12-22T09:17:57.059Z,15.93
2022-12-22T09:20:30.420Z,18.38
2022-12-22T09:23:03.764Z,22.95
2022-12-22T09:25:37.053Z,17.50
2022-12-22T09:28:10.381Z,15.43
2022-12-22T09:30:43.803Z,18.77
2022-12-22T09:33:18.556Z,16.30
2022-12-22T09:35:51.908Z,19.50
2022-12-22T09:38:28.239Z,15.80
2022-12-22T09:41:07.446Z,14.15
2022-12-22T09:43:40.870Z,15.13
2022-12-22T09:46:22.611Z,15.07
2022-12-22T09:48:57.678Z,16.15
2022-12-22T09:51:32.340Z,15.73
2022-12-22T09:54:05.759Z,16.00
2022-12-22T09:56:39.123Z,13.05
2022-12-22T09:59:13.910Z,11.55
2022-12-22T10:02:01.594Z,16.45
2022-12-22T10:04:54.114Z,12.30
2022-12-22T10:07:33.473Z,15.50
2022-12-22T10:10:08.576Z,14.35
2022-12-22T10:12:41.966Z,20.58
2022-12-22T10:15:21.512Z,13.00
2022-12-22T10:18:09.304Z,12.85
2022-12-22T10:20:46.056Z,12.68
2022-12-22T10:23:30.167Z,10.88
2022-12-22T10:26:28.070Z,13.07
2022-12-22T10:29:06.961Z,13.18
2022-12-22T10:31:58.742Z,15.55
2022-12-22T10:34:32.840Z,17.80
2022-12-22T10:37:07.679Z,12.80
2022-12-22T10:39:41.034Z,18.88
2022-12-22T10:42:15.796Z,15.43
2022-12-22T10:44:50.848Z,20.73
2022-12-22T10:47:25.974Z,11.75
2022-12-22T10:55:18.566Z,11.32
2022-12-22T10:57:52.578Z,11.93
2022-12-22T11:00:29.096Z,13.90
2022-12-22T11:03:04.566Z,11.32
2022-12-22T11:05:38.481Z,14.48
2022-12-22T11:10:59.624Z,13.38
2022-12-22T11:13:48.496Z,12.25
2022-12-22T11:16:27.158Z,12.10
2022-12-22T11:19:14.880Z,13.63
2022-12-22T11:21:58.770Z,19.35
2022-12-22T11:24:41.804Z,12.48
2022-12-22T11:27:28.854Z,14.98
2022-12-22T11:30:10.651Z,14.52
2022-12-22T11:33:03.914Z,12.88
2022-12-22T11:35:49.731Z,17.67
2022-12-22T11:38:37.457Z,15.23
2022-12-22T11:41:23.910Z,15.60
2022-12-22T11:44:09.335Z,16.02
2022-12-22T11:46:53.552Z,17.38
2022-12-22T11:50:59.994Z,17.20
2022-12-22T11:53:15.960Z,15.02
2022-12-22T11:56:07.455Z,14.60
2022-12-22T11:59:09.362Z,14.13
2022-12-22T12:01:56.386Z,16.48
2022-12-22T12:05:00.091Z,14.00
2022-12-22T12:07:36.524Z,14.75
2022-12-22T12:10:18.848Z,15.02
2022-12-22T12:13:00.877Z,13.18
2022-12-22T12:15:40.295Z,13.15
2022-12-22T12:18:36.301Z,13.65
2022-12-22T12:21:28.797Z,16.90
2022-12-22T12:24:18.213Z,14.38
2022-12-22T12:27:01.890Z,14.75
2022-12-22T12:29:41.417Z,15.93
2022-12-22T12:32:21.489Z,18.98
2022-12-22T12:35:12.951Z,17.25
2022-12-22T12:37:51.646Z,17.35
2022-12-22T12:40:36.076Z,15.93
2022-12-22T12:43:16.446Z,20.73
2022-12-22T12:45:50.967Z,16.20
2022-12-22T12:48:44.103Z,18.80
2022-12-22T12:51:49.401Z,14.05
2022-12-22T12:54:34.796Z,19.50
2022-12-22T12:57:29.689Z,17.13
2022-12-22T13:00:03.806Z,15.75
2022-12-22T13:02:41.902Z,15.43
2022-12-22T13:05:50.538Z,18.95
2022-12-22T13:08:25.175Z,20.45
2022-12-22T13:12:10.053Z,14.35
2022-12-22T13:14:58.500Z,19.85
2022-12-22T13:17:42.003Z,24.90
2022-12-22T13:20:19.447Z,25.23
2022-12-22T13:22:56.129Z,27.50
2022-12-22T13:25:42.880Z,26.63
2022-12-22T13:28:18.274Z,23.40
2022-12-22T13:30:58.159Z,20.45
2022-12-22T13:33:37.165Z,25.15
2022-12-22T13:36:19.260Z,31.60
2022-12-22T13:39:01.908Z,23.73
2022-12-22T13:41:35.948Z,26.27
2022-12-22T13:44:15.081Z,24.92
2022-12-22T13:46:48.591Z,26.95
2022-12-22T13:49:51.611Z,28.63
2022-12-22T13:52:21.261Z,23.95
2022-12-22T13:54:56.124Z,28.92
2022-12-22T13:57:30.138Z,27.58
2022-12-22T14:00:04.474Z,22.10
2022-12-22T14:02:45.340Z,20.73
2022-12-22T14:05:20.056Z,26.08
2022-12-22T14:07:59.865Z,22.00
2022-12-22T14:10:38.527Z,21.38
2022-12-22T14:13:16.691Z,26.90
2022-12-22T14:16:00.156Z,23.88
2022-12-22T14:18:34.680Z,22.33
2022-12-22T14:21:09.433Z,24.17
2022-12-22T14:23:44.123Z,21.63
2022-12-22T14:26:22.660Z,16.83
2022-12-22T14:28:57.417Z,28.20
2022-12-22T14:31:31.002Z,18.48
2022-12-22T14:34:05.616Z,14.63
2022-12-22T14:36:45.884Z,21.70
2022-12-22T14:39:23.463Z,16.23
2022-12-22T14:42:01.020Z,16.48
2022-12-22T14:44:37.757Z,15.95
2022-12-22T14:47:17.479Z,14.60
2022-12-22T14:49:53.806Z,12.43
2022-12-22T14:52:35.349Z,14.68
2022-12-22T14:55:24.904Z,17.05
2022-12-22T14:58:02.640Z,11.25
2022-12-22T15:00:37.577Z,12.35
2022-12-22T15:03:31.575Z,9.75
2022-12-22T15:06:34.239Z,10.13
2022-12-22T15:10:12.597Z,12.52
2022-12-22T15:12:22.764Z,14.88
2022-12-22T15:14:57.567Z,11.90
2022-12-22T15:17:31.209Z,12.45
2022-12-22T15:22:54.229Z,11.98
2022-12-22T15:25:27.509Z,12.48
2022-12-22T15:28:00.800Z,9.95
2022-12-22T15:30:34.233Z,12.05
2022-12-22T15:33:14.264Z,14.45
2022-12-22T15:35:48.065Z,16.40
2022-12-22T15:40:56.626Z,17.15
2022-12-22T15:43:56.621Z,12.85
2022-12-22T15:46:24.748Z,16.75
2022-12-22T15:48:58.334Z,17.55
2022-12-22T15:51:33.391Z,12.88
2022-12-22T15:54:12.816Z,13.18
2022-12-22T15:56:46.853Z,15.35
2022-12-22T15:59:23.885Z,9.73
2022-12-22T16:02:01.958Z,15.05
2022-12-22T16:04:35.691Z,15.05
2022-12-22T16:07:12.519Z,17.63
2022-12-22T16:09:48.584Z,10.15
2022-12-22T16:12:21.977Z,14.25
2022-12-22T16:14:57.974Z,16.90
2022-12-22T16:17:32.810Z,19.73
2022-12-22T16:20:07.827Z,12.73
2022-12-22T16:22:42.514Z,14.43
2022-12-22T16:25:20.064Z,9.75
2022-12-22T16:27:53.463Z,14.10
2022-12-22T16:30:29.092Z,16.17
2022-12-22T16:33:02.950Z,11.10
2022-12-22T16:38:16.305Z,13.70
2022-12-22T16:40:54.843Z,9.13
2022-12-22T16:43:50.243Z,9.52
2022-12-22T16:46:24.645Z,10.82
2022-12-22T16:49:00.927Z,11.05
2022-12-22T16:51:36.840Z,10.80
2022-12-22T16:54:14.286Z,10.68
2022-12-22T16:56:51.503Z,9.27
2022-12-22T16:59:25.669Z,10.38
2022-12-22T17:01:59.541Z,9.80
2022-12-22T17:04:33.849Z,19.88
2022-12-22T17:07:08.124Z,9.35
2022-12-22T17:09:45.374Z,16.90
2022-12-22T17:12:22.730Z,23.95
2022-12-22T17:14:58.440Z,11.23
2022-12-22T17:17:36.968Z,13.50
2022-12-22T17:20:15.762Z,12.23
2022-12-22T17:22:52.057Z,19.50
2022-12-22T17:25:27.606Z,17.90
2022-12-22T17:28:03.391Z,18.67
2022-12-22T17:30:36.897Z,22.63
2022-12-22T17:33:15.678Z,25.67
2022-12-22T17:35:50.441Z,18.88
2022-12-22T17:38:27.074Z,13.82
2022-12-22T17:41:03.128Z,14.57
2022-12-22T17:43:37.925Z,13.52
2022-12-22T17:46:16.318Z,14.77
2022-12-22T17:48:50.510Z,13.27
2022-12-22T17:51:26.421Z,18.98
2022-12-22T17:54:00.231Z,14.95
2022-12-22T17:56:33.569Z,18.02
2022-12-22T17:59:12.918Z,16.52
2022-12-22T18:01:46.405Z,14.57
2022-12-22T18:04:19.836Z,13.23
2022-12-22T18:06:53.249Z,19.05
2022-12-22T18:09:27.618Z,17.40
2022-12-22T18:12:00.981Z,17.80
2022-12-22T18:14:35.637Z,16.48
2022-12-22T18:17:21.967Z,16.55
2022-12-22T18:19:55.886Z,17.67
2022-12-22T18:22:30.664Z,17.13
2022-12-22T18:25:03.983Z,14.70
2022-12-22T18:27:37.315Z,23.75
2022-12-22T18:30:19.993Z,21.27
2022-12-22T18:32:54.724Z,19.52
2022-12-22T18:35:29.658Z,18.90
2022-12-22T18:38:03.386Z,19.27
2022-12-22T18:40:39.523Z,15.38
2022-12-22T18:43:14.348Z,15.57
2022-12-22T18:45:49.464Z,16.38
2022-12-22T18:48:23.073Z,20.08
2022-12-22T18:50:56.498Z,18.67
2022-12-22T18:53:32.520Z,18.48
2022-12-22T18:56:06.193Z,15.57
2022-12-22T18:58:40.413Z,15.93
2022-12-22T19:01:19.959Z,14.60
2022-12-22T19:03:55.423Z,13.65
2022-12-22T19:06:28.829Z,16.60
2022-12-22T19:09:02.115Z,16.35
2022-12-22T19:11:35.455Z,14.75
2022-12-22T19:14:18.102Z,22.02
2022-12-22T19:16:52.941Z,17.88
2022-12-22T19:19:26.274Z,19.20
2022-12-22T19:21:59.640Z,13.60
2022-12-22T19:24:32.992Z,14.88
2022-12-22T19:27:06.640Z,18.38
2022-12-22T19:29:40.056Z,20.42
2022-12-22T19:32:23.838Z,22.27
2022-12-22T19:34:57.304Z,13.73
2022-12-22T19:37:30.768Z,17.33
2022-12-22T19:40:04.280Z,16.92
2022-12-22T19:42:37.780Z,14.68
2022-12-22T19:45:24.288Z,13.23
2022-12-22T19:47:59.331Z,17.83
2022-12-22T19:50:33.433Z,15.20
2022-12-22T19:53:06.764Z,13.88
2022-12-22T19:55:46.509Z,16.42
2022-12-22T19:58:22.756Z,8.90
2022-12-22T20:00:56.628Z,16.10
2022-12-22T20:03:31.953Z,12.85
2022-12-22T20:06:07.985Z,12.18
2022-12-22T20:08:41.339Z,17.42
2022-12-22T20:11:16.882Z,11.38
2022-12-22T20:13:50.846Z,11.48
2022-12-22T20:16:24.504Z,11.85
2022-12-22T20:24:07.075Z,16.48
2022-12-22T20:26:40.423Z,11.50
2022-12-22T20:29:13.733Z,12.38
2022-12-22T20:31:47.150Z,8.35
2022-12-22T20:34:21.932Z,12.40
2022-12-22T20:36:55.316Z,9.75
2022-12-22T20:39:28.616Z,8.65
2022-12-22T20:42:01.953Z,8.93
2022-12-22T20:44:37.880Z,13.50
2022-12-22T20:47:31.344Z,11.60
2022-12-22T20:50:17.312Z,15.70
2022-12-22T20:52:51.521Z,14.65
2022-12-22T20:55:27.661Z,15.48
2022-12-22T20:58:01.172Z,13.13
2022-12-22T21:00:34.657Z,12.85
2022-12-22T21:03:09.871Z,13.48
2022-12-22T21:05:44.836Z,13.07
2022-12-22T21:08:21.991Z,12.25
2022-12-22T21:10:56.614Z,16.08
2022-12-22T21:13:30.225Z,15.73
2022-12-22T21:16:03.850Z,18.27
2022-12-22T21:18:37.480Z,13.73
2022-12-22T21:21:13.455Z,13.05
2022-12-22T21:23:47.714Z,11.00
2022-12-22T21:26:32.095Z,15.68
2022-12-22T21:29:09.060Z,16.00
2022-12-22T21:31:42.432Z,13.50
2022-12-22T21:34:15.867Z,11.45
2022-12-22T21:36:56.480Z,12.98
2022-12-22T21:39:37.002Z,11.13
2022-12-22T21:42:14.903Z,14.00
2022-12-22T21:44:48.322Z,17.00
2022-12-22T21:47:21.776Z,14.13
2022-12-22T21:49:55.180Z,10.73
2022-12-22T21:52:29.925Z,8.68
2022-12-22T21:55:05.242Z,8.77
2022-12-22T21:57:38.548Z,8.40
2022-12-22T22:00:14.516Z,10.70
2022-12-22T22:02:49.008Z,10.65
2022-12-22T22:05:28.657Z,10.68
2022-12-22T22:08:07.220Z,7.82
2022-12-22T22:10:42.161Z,9.82
2022-12-22T22:13:16.896Z,6.38
2022-12-22T22:15:50.439Z,8.00
2022-12-22T22:18:23.808Z,9.23
2022-12-22T22:20:57.307Z,7.63
2022-12-22T22:23:31.963Z,8.05
2022-12-22T22:26:07.098Z,8.30
2022-12-22T22:28:40.425Z,11.57
2022-12-22T22:31:13.937Z,6.72
2022-12-22T22:33:50.144Z,7.78
2022-12-22T22:36:23.437Z,7.57
2022-12-22T22:38:58.135Z,5.32
2022-12-22T22:41:39.117Z,5.60
2022-12-22T22:44:14.521Z,7.43
2022-12-22T22:46:47.916Z,7.97
2022-12-22T22:49:26.168Z,5.95
2022-12-22T22:52:01.837Z,6.65
2022-12-22T22:54:36.836Z,7.30
2022-12-22T22:57:10.272Z,5.43
2022-12-22T22:59:43.707Z,5.88
2022-12-22T23:02:17.341Z,5.65
2022-12-22T23:04:50.836Z,6.70
2022-12-22T23:07:24.298Z,6.38
2022-12-22T23:09:59.001Z,4.97
2022-12-22T23:12:32.993Z,6.53
2022-12-22T23:15:07.066Z,4.95
2022-12-22T23:17:40.433Z,5.45
2022-12-22T23:20:13.955Z,4.95
2022-12-22T23:22:47.953Z,8.23
2022-12-22T23:25:22.696Z,8.15
2022-12-22T23:27:56.044Z,4.10
2022-12-22T23:30:29.322Z,9.52
2022-12-22T23:33:02.716Z,5.72
2022-12-22T23:35:37.853Z,6.18
2022-12-22T23:38:12.023Z,4.25
2022-12-22T23:40:54.869Z,4.50
2022-12-22T23:43:28.589Z,4.63
2022-12-22T23:46:01.918Z,3.42
2022-12-22T23:48:36.463Z,4.53
2022-12-22T23:51:13.355Z,4.10
2022-12-22T23:53:47.311Z,4.72
2022-12-22T23:56:22.142Z,4.18
2022-12-22T23:58:55.718Z,7.47
